sensor_id;sensor_type;location;lat;lon;timestamp;P1;durP1;ratioP1;P2;durP2;ratioP2
6023;SDS011;3040;42.654;23.296;2023-08-21T00:00:28;5.83;;;5.63;;
6023;SDS011;3040;42.654;23.296;2023-08-21T00:02:54;5.53;;;5.13;;
6023;SDS011;3040;42.654;23.296;2023-08-21T00:05:21;5.80;;;5.57;;
6023;SDS011;3040;42.654;23.296;2023-08-21T00:07:48;5.90;;;5.33;;
6023;SDS011;3040;42.654;23.296;2023-08-21T00:10:16;6.23;;;5.67;;
6023;SDS011;3040;42.654;23.296;2023-08-21T00:12:44;8.40;;;5.33;;
6023;SDS011;3040;42.654;23.296;2023-08-21T00:15:11;5.83;;;5.43;;
6023;SDS011;3040;42.654;23.296;2023-08-21T00:17:37;5.17;;;4.97;;
6023;SDS011;3040;42.654;23.296;2023-08-21T00:20:05;5.27;;;4.87;;
6023;SDS011;3040;42.654;23.296;2023-08-21T00:22:34;5.53;;;5.27;;
6023;SDS011;3040;42.654;23.296;2023-08-21T00:25:01;5.87;;;5.47;;
6023;SDS011;3040;42.654;23.296;2023-08-21T00:27:28;5.43;;;5.00;;
6023;SDS011;3040;42.654;23.296;2023-08-21T00:29:56;6.33;;;5.07;;
6023;SDS011;3040;42.654;23.296;2023-08-21T00:32:23;5.43;;;5.03;;
6023;SDS011;3040;42.654;23.296;2023-08-21T00:34:50;5.70;;;5.30;;
6023;SDS011;3040;42.654;23.296;2023-08-21T00:37:17;5.60;;;5.27;;
6023;SDS011;3040;42.654;23.296;2023-08-21T00:39:44;5.73;;;5.33;;
6023;SDS011;3040;42.654;23.296;2023-08-21T00:42:11;5.70;;;5.20;;
6023;SDS011;3040;42.654;23.296;2023-08-21T00:44:38;5.73;;;5.10;;
6023;SDS011;3040;42.654;23.296;2023-08-21T00:47:06;5.57;;;5.17;;
6023;SDS011;3040;42.654;23.296;2023-08-21T00:49:33;5.93;;;5.40;;
6023;SDS011;3040;42.654;23.296;2023-08-21T00:52:00;6.43;;;5.70;;
6023;SDS011;3040;42.654;23.296;2023-08-21T00:54:27;7.50;;;5.60;;
6023;SDS011;3040;42.654;23.296;2023-08-21T00:56:54;5.40;;;5.10;;
6023;SDS011;3040;42.654;23.296;2023-08-21T00:59:21;5.40;;;5.20;;
6023;SDS011;3040;42.654;23.296;2023-08-21T01:01:48;6.30;;;6.00;;
6023;SDS011;3040;42.654;23.296;2023-08-21T01:04:17;5.63;;;5.13;;
6023;SDS011;3040;42.654;23.296;2023-08-21T01:06:43;6.90;;;5.80;;
6023;SDS011;3040;42.654;23.296;2023-08-21T01:09:12;5.77;;;5.33;;
6023;SDS011;3040;42.654;23.296;2023-08-21T01:11:46;5.27;;;5.07;;
6023;SDS011;3040;42.654;23.296;2023-08-21T01:14:22;8.33;;;4.87;;
6023;SDS011;3040;42.654;23.296;2023-08-21T01:16:55;5.97;;;5.57;;
6023;SDS011;3040;42.654;23.296;2023-08-21T01:19:30;5.70;;;5.40;;
6023;SDS011;3040;42.654;23.296;2023-08-21T01:22:01;5.00;;;4.70;;
6023;SDS011;3040;42.654;23.296;2023-08-21T01:24:30;5.37;;;5.07;;
6023;SDS011;3040;42.654;23.296;2023-08-21T01:26:56;6.27;;;5.87;;
6023;SDS011;3040;42.654;23.296;2023-08-21T01:29:23;8.50;;;5.50;;
6023;SDS011;3040;42.654;23.296;2023-08-21T01:31:52;5.50;;;5.20;;
6023;SDS011;3040;42.654;23.296;2023-08-21T01:34:26;6.00;;;5.47;;
6023;SDS011;3040;42.654;23.296;2023-08-21T01:36:55;6.73;;;5.70;;
6023;SDS011;3040;42.654;23.296;2023-08-21T01:39:22;5.40;;;5.00;;
6023;SDS011;3040;42.654;23.296;2023-08-21T01:41:51;5.63;;;5.23;;
6023;SDS011;3040;42.654;23.296;2023-08-21T01:44:17;5.63;;;5.33;;
6023;SDS011;3040;42.654;23.296;2023-08-21T01:46:44;5.47;;;5.17;;
6023;SDS011;3040;42.654;23.296;2023-08-21T01:49:11;5.57;;;5.23;;
6023;SDS011;3040;42.654;23.296;2023-08-21T01:51:37;5.83;;;5.37;;
6023;SDS011;3040;42.654;23.296;2023-08-21T01:54:04;5.50;;;5.20;;
6023;SDS011;3040;42.654;23.296;2023-08-21T01:56:31;5.70;;;5.27;;
6023;SDS011;3040;42.654;23.296;2023-08-21T01:58:59;5.73;;;5.43;;
6023;SDS011;3040;42.654;23.296;2023-08-21T02:01:26;6.20;;;5.67;;
6023;SDS011;3040;42.654;23.296;2023-08-21T02:03:53;6.40;;;5.53;;
6023;SDS011;3040;42.654;23.296;2023-08-21T02:06:20;5.07;;;4.87;;
6023;SDS011;3040;42.654;23.296;2023-08-21T02:08:46;5.83;;;5.40;;
6023;SDS011;3040;42.654;23.296;2023-08-21T02:11:13;6.07;;;5.47;;
6023;SDS011;3040;42.654;23.296;2023-08-21T02:13:40;6.70;;;6.10;;
6023;SDS011;3040;42.654;23.296;2023-08-21T02:16:08;7.00;;;4.80;;
6023;SDS011;3040;42.654;23.296;2023-08-21T02:18:35;8.50;;;5.37;;
6023;SDS011;3040;42.654;23.296;2023-08-21T02:21:02;5.80;;;5.40;;
6023;SDS011;3040;42.654;23.296;2023-08-21T02:23:29;5.90;;;5.40;;
6023;SDS011;3040;42.654;23.296;2023-08-21T02:25:55;5.83;;;5.40;;
6023;SDS011;3040;42.654;23.296;2023-08-21T02:28:23;6.27;;;5.70;;
6023;SDS011;3040;42.654;23.296;2023-08-21T02:30:49;5.87;;;5.47;;
6023;SDS011;3040;42.654;23.296;2023-08-21T02:33:17;6.50;;;5.97;;
6023;SDS011;3040;42.654;23.296;2023-08-21T02:35:44;6.07;;;5.50;;
6023;SDS011;3040;42.654;23.296;2023-08-21T02:38:11;8.43;;;5.40;;
6023;SDS011;3040;42.654;23.296;2023-08-21T02:40:38;6.23;;;5.63;;
6023;SDS011;3040;42.654;23.296;2023-08-21T02:43:05;5.93;;;5.53;;
6023;SDS011;3040;42.654;23.296;2023-08-21T02:45:32;6.00;;;5.70;;
6023;SDS011;3040;42.654;23.296;2023-08-21T02:47:58;9.03;;;5.77;;
6023;SDS011;3040;42.654;23.296;2023-08-21T02:50:26;5.97;;;5.57;;
6023;SDS011;3040;42.654;23.296;2023-08-21T02:52:53;5.57;;;5.17;;
6023;SDS011;3040;42.654;23.296;2023-08-21T02:55:20;6.37;;;5.70;;
6023;SDS011;3040;42.654;23.296;2023-08-21T02:57:47;7.03;;;5.73;;
6023;SDS011;3040;42.654;23.296;2023-08-21T03:00:13;10.13;;;5.63;;
6023;SDS011;3040;42.654;23.296;2023-08-21T03:02:41;9.53;;;6.23;;
6023;SDS011;3040;42.654;23.296;2023-08-21T03:05:09;8.87;;;5.90;;
6023;SDS011;3040;42.654;23.296;2023-08-21T03:07:37;10.50;;;6.20;;
6023;SDS011;3040;42.654;23.296;2023-08-21T03:10:04;11.13;;;6.73;;
6023;SDS011;3040;42.654;23.296;2023-08-21T03:12:32;7.00;;;6.40;;
6023;SDS011;3040;42.654;23.296;2023-08-21T03:14:59;7.33;;;6.60;;
6023;SDS011;3040;42.654;23.296;2023-08-21T03:17:26;6.87;;;6.33;;
6023;SDS011;3040;42.654;23.296;2023-08-21T03:19:53;11.47;;;6.27;;
6023;SDS011;3040;42.654;23.296;2023-08-21T03:22:19;6.97;;;6.23;;
6023;SDS011;3040;42.654;23.296;2023-08-21T03:24:47;6.93;;;6.37;;
6023;SDS011;3040;42.654;23.296;2023-08-21T03:27:14;6.50;;;6.13;;
6023;SDS011;3040;42.654;23.296;2023-08-21T03:29:41;6.50;;;6.10;;
6023;SDS011;3040;42.654;23.296;2023-08-21T03:32:13;7.77;;;5.87;;
6023;SDS011;3040;42.654;23.296;2023-08-21T03:34:40;9.30;;;7.47;;
6023;SDS011;3040;42.654;23.296;2023-08-21T03:37:06;6.37;;;5.93;;
6023;SDS011;3040;42.654;23.296;2023-08-21T03:39:33;8.60;;;6.40;;
6023;SDS011;3040;42.654;23.296;2023-08-21T03:42:01;8.07;;;7.30;;
6023;SDS011;3040;42.654;23.296;2023-08-21T03:44:28;7.20;;;6.43;;
6023;SDS011;3040;42.654;23.296;2023-08-21T03:46:55;7.47;;;6.77;;
6023;SDS011;3040;42.654;23.296;2023-08-21T03:49:22;14.27;;;7.13;;
6023;SDS011;3040;42.654;23.296;2023-08-21T03:51:49;7.93;;;7.50;;
6023;SDS011;3040;42.654;23.296;2023-08-21T03:54:15;15.50;;;7.47;;
6023;SDS011;3040;42.654;23.296;2023-08-21T03:56:42;12.60;;;7.73;;
6023;SDS011;3040;42.654;23.296;2023-08-21T03:59:10;17.67;;;8.03;;
6023;SDS011;3040;42.654;23.296;2023-08-21T04:01:37;8.60;;;7.20;;
6023;SDS011;3040;42.654;23.296;2023-08-21T04:04:04;7.43;;;6.97;;
6023;SDS011;3040;42.654;23.296;2023-08-21T04:06:31;13.67;;;8.00;;
6023;SDS011;3040;42.654;23.296;2023-08-21T04:08:58;8.60;;;7.57;;
6023;SDS011;3040;42.654;23.296;2023-08-21T04:11:25;7.97;;;7.20;;
6023;SDS011;3040;42.654;23.296;2023-08-21T04:13:53;7.93;;;6.63;;
6023;SDS011;3040;42.654;23.296;2023-08-21T04:16:22;11.90;;;8.77;;
6023;SDS011;3040;42.654;23.296;2023-08-21T04:18:48;11.40;;;8.17;;
6023;SDS011;3040;42.654;23.296;2023-08-21T04:21:15;10.87;;;6.90;;
6023;SDS011;3040;42.654;23.296;2023-08-21T04:23:43;10.80;;;7.80;;
6023;SDS011;3040;42.654;23.296;2023-08-21T04:26:11;14.07;;;9.27;;
6023;SDS011;3040;42.654;23.296;2023-08-21T04:28:37;9.77;;;7.87;;
6023;SDS011;3040;42.654;23.296;2023-08-21T04:31:04;9.10;;;7.90;;
6023;SDS011;3040;42.654;23.296;2023-08-21T04:33:33;9.27;;;8.33;;
6023;SDS011;3040;42.654;23.296;2023-08-21T04:36:00;22.70;;;8.53;;
6023;SDS011;3040;42.654;23.296;2023-08-21T04:38:27;8.10;;;7.40;;
6023;SDS011;3040;42.654;23.296;2023-08-21T04:40:54;8.53;;;7.73;;
6023;SDS011;3040;42.654;23.296;2023-08-21T04:43:20;19.97;;;8.67;;
6023;SDS011;3040;42.654;23.296;2023-08-21T04:45:47;35.60;;;9.27;;
6023;SDS011;3040;42.654;23.296;2023-08-21T04:48:15;33.50;;;8.80;;
6023;SDS011;3040;42.654;23.296;2023-08-21T04:50:43;72.30;;;12.40;;
6023;SDS011;3040;42.654;23.296;2023-08-21T04:53:11;152.50;;;15.60;;
6023;SDS011;3040;42.654;23.296;2023-08-21T04:55:39;97.53;;;12.50;;
6023;SDS011;3040;42.654;23.296;2023-08-21T04:58:06;45.17;;;10.20;;
6023;SDS011;3040;42.654;23.296;2023-08-21T05:00:33;36.73;;;9.20;;
6023;SDS011;3040;42.654;23.296;2023-08-21T05:02:59;18.40;;;9.37;;
6023;SDS011;3040;42.654;23.296;2023-08-21T05:05:26;38.07;;;10.90;;
6023;SDS011;3040;42.654;23.296;2023-08-21T05:07:54;19.30;;;9.70;;
6023;SDS011;3040;42.654;23.296;2023-08-21T05:10:21;16.53;;;9.17;;
6023;SDS011;3040;42.654;23.296;2023-08-21T05:12:48;12.73;;;7.83;;
6023;SDS011;3040;42.654;23.296;2023-08-21T05:15:15;9.20;;;8.23;;
6023;SDS011;3040;42.654;23.296;2023-08-21T05:17:42;16.63;;;8.30;;
6023;SDS011;3040;42.654;23.296;2023-08-21T05:20:09;13.97;;;8.63;;
6023;SDS011;3040;42.654;23.296;2023-08-21T05:22:39;11.43;;;8.83;;
6023;SDS011;3040;42.654;23.296;2023-08-21T05:25:07;20.47;;;9.80;;
6023;SDS011;3040;42.654;23.296;2023-08-21T05:27:34;11.57;;;9.63;;
6023;SDS011;3040;42.654;23.296;2023-08-21T05:30:01;9.30;;;8.53;;
6023;SDS011;3040;42.654;23.296;2023-08-21T05:32:29;12.27;;;8.87;;
6023;SDS011;3040;42.654;23.296;2023-08-21T05:34:56;10.13;;;9.10;;
6023;SDS011;3040;42.654;23.296;2023-08-21T05:37:23;20.90;;;10.37;;
6023;SDS011;3040;42.654;23.296;2023-08-21T05:39:52;10.10;;;9.17;;
6023;SDS011;3040;42.654;23.296;2023-08-21T05:42:20;11.03;;;10.00;;
6023;SDS011;3040;42.654;23.296;2023-08-21T05:44:47;10.43;;;9.43;;
6023;SDS011;3040;42.654;23.296;2023-08-21T05:47:13;11.23;;;9.90;;
6023;SDS011;3040;42.654;23.296;2023-08-21T05:49:40;14.97;;;10.63;;
6023;SDS011;3040;42.654;23.296;2023-08-21T05:52:08;12.23;;;9.50;;
6023;SDS011;3040;42.654;23.296;2023-08-21T05:54:35;11.03;;;9.80;;
6023;SDS011;3040;42.654;23.296;2023-08-21T05:57:03;10.63;;;9.17;;
6023;SDS011;3040;42.654;23.296;2023-08-21T05:59:31;13.53;;;9.03;;
6023;SDS011;3040;42.654;23.296;2023-08-21T06:01:59;12.93;;;9.30;;
6023;SDS011;3040;42.654;23.296;2023-08-21T06:04:26;14.00;;;9.57;;
6023;SDS011;3040;42.654;23.296;2023-08-21T06:06:53;12.63;;;9.50;;
6023;SDS011;3040;42.654;23.296;2023-08-21T06:09:20;10.53;;;8.60;;
6023;SDS011;3040;42.654;23.296;2023-08-21T06:11:47;14.33;;;9.90;;
6023;SDS011;3040;42.654;23.296;2023-08-21T06:14:14;13.47;;;10.00;;
6023;SDS011;3040;42.654;23.296;2023-08-21T06:16:42;19.33;;;10.03;;
6023;SDS011;3040;42.654;23.296;2023-08-21T06:19:10;13.43;;;10.17;;
6023;SDS011;3040;42.654;23.296;2023-08-21T06:21:37;16.43;;;11.00;;
6023;SDS011;3040;42.654;23.296;2023-08-21T06:24:03;16.33;;;10.07;;
6023;SDS011;3040;42.654;23.296;2023-08-21T06:26:30;15.23;;;8.83;;
6023;SDS011;3040;42.654;23.296;2023-08-21T06:28:57;11.77;;;8.47;;
6023;SDS011;3040;42.654;23.296;2023-08-21T06:31:24;8.17;;;7.47;;
6023;SDS011;3040;42.654;23.296;2023-08-21T06:33:52;11.37;;;8.37;;
6023;SDS011;3040;42.654;23.296;2023-08-21T06:36:18;12.30;;;7.87;;
6023;SDS011;3040;42.654;23.296;2023-08-21T06:38:45;11.43;;;8.30;;
6023;SDS011;3040;42.654;23.296;2023-08-21T06:41:12;17.97;;;8.83;;
6023;SDS011;3040;42.654;23.296;2023-08-21T06:43:39;17.27;;;8.00;;
6023;SDS011;3040;42.654;23.296;2023-08-21T06:46:06;8.10;;;7.20;;
6023;SDS011;3040;42.654;23.296;2023-08-21T06:48:34;8.57;;;7.77;;
6023;SDS011;3040;42.654;23.296;2023-08-21T06:51:02;8.23;;;6.60;;
6023;SDS011;3040;42.654;23.296;2023-08-21T06:53:29;10.57;;;6.87;;
6023;SDS011;3040;42.654;23.296;2023-08-21T06:55:56;12.97;;;6.23;;
6023;SDS011;3040;42.654;23.296;2023-08-21T06:58:23;11.33;;;6.50;;
6023;SDS011;3040;42.654;23.296;2023-08-21T07:00:50;9.37;;;6.50;;
6023;SDS011;3040;42.654;23.296;2023-08-21T07:03:17;6.13;;;5.60;;
6023;SDS011;3040;42.654;23.296;2023-08-21T07:05:46;8.40;;;5.33;;
6023;SDS011;3040;42.654;23.296;2023-08-21T07:08:14;5.97;;;5.53;;
6023;SDS011;3040;42.654;23.296;2023-08-21T07:10:41;7.73;;;5.47;;
6023;SDS011;3040;42.654;23.296;2023-08-21T07:13:08;8.23;;;5.33;;
6023;SDS011;3040;42.654;23.296;2023-08-21T07:15:35;11.50;;;5.93;;
6023;SDS011;3040;42.654;23.296;2023-08-21T07:18:01;9.53;;;6.27;;
6023;SDS011;3040;42.654;23.296;2023-08-21T07:20:28;8.37;;;5.77;;
6023;SDS011;3040;42.654;23.296;2023-08-21T07:22:55;6.67;;;6.27;;
6023;SDS011;3040;42.654;23.296;2023-08-21T07:25:24;6.47;;;5.97;;
6023;SDS011;3040;42.654;23.296;2023-08-21T07:27:51;6.23;;;5.60;;
6023;SDS011;3040;42.654;23.296;2023-08-21T07:30:18;6.57;;;5.97;;
6023;SDS011;3040;42.654;23.296;2023-08-21T07:32:45;31.37;;;8.50;;
6023;SDS011;3040;42.654;23.296;2023-08-21T07:35:12;18.47;;;6.17;;
6023;SDS011;3040;42.654;23.296;2023-08-21T07:37:39;8.03;;;6.20;;
6023;SDS011;3040;42.654;23.296;2023-08-21T07:40:07;14.17;;;6.37;;
6023;SDS011;3040;42.654;23.296;2023-08-21T07:42:35;6.93;;;6.20;;
6023;SDS011;3040;42.654;23.296;2023-08-21T07:45:02;7.87;;;5.93;;
6023;SDS011;3040;42.654;23.296;2023-08-21T07:47:29;6.87;;;6.23;;
6023;SDS011;3040;42.654;23.296;2023-08-21T07:49:56;14.83;;;6.47;;
6023;SDS011;3040;42.654;23.296;2023-08-21T07:52:23;6.13;;;5.50;;
6023;SDS011;3040;42.654;23.296;2023-08-21T07:54:51;6.60;;;6.00;;
6023;SDS011;3040;42.654;23.296;2023-08-21T07:57:18;7.50;;;5.30;;
6023;SDS011;3040;42.654;23.296;2023-08-21T07:59:46;7.87;;;5.80;;
6023;SDS011;3040;42.654;23.296;2023-08-21T08:02:13;6.17;;;5.67;;
6023;SDS011;3040;42.654;23.296;2023-08-21T08:04:40;5.63;;;5.33;;
6023;SDS011;3040;42.654;23.296;2023-08-21T08:07:08;6.10;;;5.53;;
6023;SDS011;3040;42.654;23.296;2023-08-21T08:09:35;4.93;;;4.63;;
6023;SDS011;3040;42.654;23.296;2023-08-21T08:12:02;9.67;;;6.10;;
6023;SDS011;3040;42.654;23.296;2023-08-21T08:14:29;8.83;;;5.57;;
6023;SDS011;3040;42.654;23.296;2023-08-21T08:16:57;6.10;;;5.60;;
6023;SDS011;3040;42.654;23.296;2023-08-21T08:19:24;5.83;;;5.33;;
6023;SDS011;3040;42.654;23.296;2023-08-21T08:21:51;6.73;;;5.83;;
6023;SDS011;3040;42.654;23.296;2023-08-21T08:24:18;6.63;;;5.47;;
6023;SDS011;3040;42.654;23.296;2023-08-21T08:26:44;5.40;;;5.10;;
6023;SDS011;3040;42.654;23.296;2023-08-21T08:29:11;6.10;;;5.60;;
6023;SDS011;3040;42.654;23.296;2023-08-21T08:31:38;8.10;;;5.13;;
6023;SDS011;3040;42.654;23.296;2023-08-21T08:34:06;5.23;;;4.80;;
6023;SDS011;3040;42.654;23.296;2023-08-21T08:36:33;6.23;;;5.40;;
6023;SDS011;3040;42.654;23.296;2023-08-21T08:39:00;38.23;;;8.70;;
6023;SDS011;3040;42.654;23.296;2023-08-21T08:41:30;9.00;;;5.50;;
6023;SDS011;3040;42.654;23.296;2023-08-21T08:43:59;5.70;;;5.40;;
6023;SDS011;3040;42.654;23.296;2023-08-21T08:46:28;5.55;;;4.90;;
6023;SDS011;3040;42.654;23.296;2023-08-21T08:48:56;4.70;;;4.50;;
6023;SDS011;3040;42.654;23.296;2023-08-21T08:51:24;10.48;;;5.30;;
6023;SDS011;3040;42.654;23.296;2023-08-21T08:53:54;4.97;;;4.57;;
6023;SDS011;3040;42.654;23.296;2023-08-21T08:56:24;5.40;;;5.00;;
6023;SDS011;3040;42.654;23.296;2023-08-21T08:58:51;4.43;;;4.15;;
6023;SDS011;3040;42.654;23.296;2023-08-21T09:01:18;5.90;;;5.00;;
6023;SDS011;3040;42.654;23.296;2023-08-21T09:03:44;9.55;;;5.03;;
6023;SDS011;3040;42.654;23.296;2023-08-21T09:06:12;6.35;;;4.65;;
6023;SDS011;3040;42.654;23.296;2023-08-21T09:08:40;6.55;;;4.93;;
6023;SDS011;3040;42.654;23.296;2023-08-21T09:11:19;8.50;;;4.50;;
6023;SDS011;3040;42.654;23.296;2023-08-21T09:13:47;10.35;;;4.78;;
6023;SDS011;3040;42.654;23.296;2023-08-21T09:16:17;6.03;;;5.28;;
6023;SDS011;3040;42.654;23.296;2023-08-21T09:18:46;6.22;;;5.85;;
6023;SDS011;3040;42.654;23.296;2023-08-21T09:21:15;6.22;;;5.60;;
6023;SDS011;3040;42.654;23.296;2023-08-21T09:23:44;11.75;;;5.15;;
6023;SDS011;3040;42.654;23.296;2023-08-21T09:26:11;10.38;;;4.90;;
6023;SDS011;3040;42.654;23.296;2023-08-21T09:28:44;5.28;;;4.80;;
6023;SDS011;3040;42.654;23.296;2023-08-21T09:31:11;5.93;;;4.25;;
6023;SDS011;3040;42.654;23.296;2023-08-21T09:33:38;4.88;;;4.32;;
6023;SDS011;3040;42.654;23.296;2023-08-21T09:36:05;4.38;;;4.18;;
6023;SDS011;3040;42.654;23.296;2023-08-21T09:38:33;5.75;;;5.32;;
6023;SDS011;3040;42.654;23.296;2023-08-21T09:41:02;4.78;;;4.20;;
6023;SDS011;3040;42.654;23.296;2023-08-21T09:43:29;4.85;;;4.43;;
6023;SDS011;3040;42.654;23.296;2023-08-21T09:45:56;5.47;;;4.32;;
6023;SDS011;3040;42.654;23.296;2023-08-21T09:48:23;4.40;;;4.07;;
6023;SDS011;3040;42.654;23.296;2023-08-21T09:50:52;5.05;;;4.65;;
6023;SDS011;3040;42.654;23.296;2023-08-21T09:53:21;5.50;;;5.10;;
6023;SDS011;3040;42.654;23.296;2023-08-21T09:55:49;5.07;;;4.60;;
6023;SDS011;3040;42.654;23.296;2023-08-21T09:58:21;4.80;;;4.50;;
6023;SDS011;3040;42.654;23.296;2023-08-21T10:00:49;12.65;;;5.53;;
6023;SDS011;3040;42.654;23.296;2023-08-21T10:03:19;9.77;;;4.47;;
6023;SDS011;3040;42.654;23.296;2023-08-21T10:05:47;5.68;;;4.65;;
6023;SDS011;3040;42.654;23.296;2023-08-21T10:08:15;4.63;;;4.28;;
6023;SDS011;3040;42.654;23.296;2023-08-21T10:10:44;6.50;;;5.90;;
6023;SDS011;3040;42.654;23.296;2023-08-21T10:13:11;4.95;;;4.53;;
6023;SDS011;3040;42.654;23.296;2023-08-21T10:15:39;4.00;;;3.80;;
6023;SDS011;3040;42.654;23.296;2023-08-21T10:18:19;5.57;;;4.68;;
6023;SDS011;3040;42.654;23.296;2023-08-21T10:20:48;12.13;;;4.72;;
6023;SDS011;3040;42.654;23.296;2023-08-21T10:23:28;5.70;;;3.67;;
6023;SDS011;3040;42.654;23.296;2023-08-21T10:25:56;4.25;;;3.83;;
6023;SDS011;3040;42.654;23.296;2023-08-21T10:28:24;4.32;;;3.92;;
6023;SDS011;3040;42.654;23.296;2023-08-21T10:30:52;4.30;;;4.00;;
6023;SDS011;3040;42.654;23.296;2023-08-21T10:33:45;7.38;;;4.30;;
6023;SDS011;3040;42.654;23.296;2023-08-21T10:36:12;3.83;;;3.63;;
6023;SDS011;3040;42.654;23.296;2023-08-21T10:41:26;9.88;;;3.92;;
6023;SDS011;3040;42.654;23.296;2023-08-21T10:43:53;8.57;;;4.13;;
6023;SDS011;3040;42.654;23.296;2023-08-21T10:46:21;4.05;;;3.83;;
6023;SDS011;3040;42.654;23.296;2023-08-21T10:48:48;3.92;;;3.63;;
6023;SDS011;3040;42.654;23.296;2023-08-21T10:51:15;10.63;;;5.00;;
6023;SDS011;3040;42.654;23.296;2023-08-21T10:53:43;11.20;;;4.18;;
6023;SDS011;3040;42.654;23.296;2023-08-21T10:56:10;5.07;;;3.92;;
6023;SDS011;3040;42.654;23.296;2023-08-21T10:58:38;4.40;;;3.85;;
6023;SDS011;3040;42.654;23.296;2023-08-21T11:01:07;4.43;;;4.15;;
6023;SDS011;3040;42.654;23.296;2023-08-21T11:03:35;4.85;;;4.43;;
6023;SDS011;3040;42.654;23.296;2023-08-21T11:06:05;4.10;;;3.80;;
6023;SDS011;3040;42.654;23.296;2023-08-21T11:08:32;8.90;;;4.30;;
6023;SDS011;3040;42.654;23.296;2023-08-21T11:10:59;11.40;;;4.85;;
6023;SDS011;3040;42.654;23.296;2023-08-21T11:13:27;14.18;;;4.55;;
6023;SDS011;3040;42.654;23.296;2023-08-21T11:16:00;4.45;;;4.00;;
6023;SDS011;3040;42.654;23.296;2023-08-21T11:18:30;8.27;;;3.70;;
6023;SDS011;3040;42.654;23.296;2023-08-21T11:21:06;38.65;;;6.70;;
6023;SDS011;3040;42.654;23.296;2023-08-21T11:23:35;4.18;;;3.85;;
6023;SDS011;3040;42.654;23.296;2023-08-21T11:26:03;4.40;;;4.00;;
6023;SDS011;3040;42.654;23.296;2023-08-21T11:28:30;3.90;;;3.55;;
6023;SDS011;3040;42.654;23.296;2023-08-21T11:30:58;4.28;;;3.92;;
6023;SDS011;3040;42.654;23.296;2023-08-21T11:33:25;4.13;;;3.83;;
6023;SDS011;3040;42.654;23.296;2023-08-21T11:35:52;4.32;;;4.00;;
6023;SDS011;3040;42.654;23.296;2023-08-21T11:38:22;10.73;;;4.43;;
6023;SDS011;3040;42.654;23.296;2023-08-21T11:40:52;4.20;;;3.90;;
6023;SDS011;3040;42.654;23.296;2023-08-21T11:43:20;4.20;;;4.00;;
6023;SDS011;3040;42.654;23.296;2023-08-21T11:45:48;5.88;;;3.38;;
6023;SDS011;3040;42.654;23.296;2023-08-21T11:48:15;4.25;;;3.80;;
6023;SDS011;3040;42.654;23.296;2023-08-21T11:50:45;9.55;;;4.57;;
6023;SDS011;3040;42.654;23.296;2023-08-21T11:53:14;4.53;;;4.22;;
6023;SDS011;3040;42.654;23.296;2023-08-21T11:55:42;3.95;;;3.67;;
6023;SDS011;3040;42.654;23.296;2023-08-21T11:58:10;4.65;;;4.35;;
6023;SDS011;3040;42.654;23.296;2023-08-21T12:00:36;3.30;;;3.10;;
6023;SDS011;3040;42.654;23.296;2023-08-21T12:03:06;5.65;;;3.83;;
6023;SDS011;3040;42.654;23.296;2023-08-21T12:05:35;4.00;;;3.70;;
6023;SDS011;3040;42.654;23.296;2023-08-21T12:08:09;4.32;;;3.92;;
6023;SDS011;3040;42.654;23.296;2023-08-21T12:10:36;6.70;;;3.88;;
6023;SDS011;3040;42.654;23.296;2023-08-21T12:13:04;5.63;;;3.80;;
6023;SDS011;3040;42.654;23.296;2023-08-21T12:15:33;3.92;;;3.63;;
6023;SDS011;3040;42.654;23.296;2023-08-21T12:18:00;5.00;;;4.47;;
6023;SDS011;3040;42.654;23.296;2023-08-21T12:20:27;4.00;;;3.67;;
6023;SDS011;3040;42.654;23.296;2023-08-21T12:22:54;10.07;;;4.60;;
6023;SDS011;3040;42.654;23.296;2023-08-21T12:25:21;6.05;;;3.60;;
6023;SDS011;3040;42.654;23.296;2023-08-21T12:27:49;5.57;;;3.80;;
6023;SDS011;3040;42.654;23.296;2023-08-21T12:30:17;4.65;;;4.45;;
6023;SDS011;3040;42.654;23.296;2023-08-21T12:32:44;3.97;;;3.65;;
6023;SDS011;3040;42.654;23.296;2023-08-21T12:35:10;6.97;;;3.90;;
6023;SDS011;3040;42.654;23.296;2023-08-21T12:37:37;4.63;;;3.90;;
6023;SDS011;3040;42.654;23.296;2023-08-21T12:40:05;8.18;;;3.78;;
6023;SDS011;3040;42.654;23.296;2023-08-21T12:42:33;4.00;;;3.70;;
6023;SDS011;3040;42.654;23.296;2023-08-21T12:45:00;5.30;;;3.83;;
6023;SDS011;3040;42.654;23.296;2023-08-21T12:47:28;5.38;;;3.90;;
6023;SDS011;3040;42.654;23.296;2023-08-21T12:49:54;4.20;;;4.00;;
6023;SDS011;3040;42.654;23.296;2023-08-21T12:52:21;4.07;;;3.88;;
6023;SDS011;3040;42.654;23.296;2023-08-21T12:54:48;4.28;;;3.92;;
6023;SDS011;3040;42.654;23.296;2023-08-21T12:57:15;4.88;;;3.70;;
6023;SDS011;3040;42.654;23.296;2023-08-21T12:59:42;4.05;;;3.75;;
6023;SDS011;3040;42.654;23.296;2023-08-21T13:02:08;4.30;;;4.00;;
6023;SDS011;3040;42.654;23.296;2023-08-21T13:04:36;4.53;;;4.05;;
6023;SDS011;3040;42.654;23.296;2023-08-21T13:07:04;4.38;;;3.95;;
6023;SDS011;3040;42.654;23.296;2023-08-21T13:09:31;3.88;;;3.63;;
6023;SDS011;3040;42.654;23.296;2023-08-21T13:11:58;3.83;;;3.63;;
6023;SDS011;3040;42.654;23.296;2023-08-21T13:14:25;4.10;;;3.50;;
6023;SDS011;3040;42.654;23.296;2023-08-21T13:16:52;4.40;;;4.00;;
6023;SDS011;3040;42.654;23.296;2023-08-21T13:19:19;4.15;;;3.85;;
6023;SDS011;3040;42.654;23.296;2023-08-21T13:21:47;4.45;;;4.03;;
6023;SDS011;3040;42.654;23.296;2023-08-21T13:24:14;3.72;;;3.42;;
6023;SDS011;3040;42.654;23.296;2023-08-21T13:26:40;3.85;;;3.40;;
6023;SDS011;3040;42.654;23.296;2023-08-21T13:29:07;4.97;;;3.72;;
6023;SDS011;3040;42.654;23.296;2023-08-21T13:31:34;4.22;;;3.88;;
6023;SDS011;3040;42.654;23.296;2023-08-21T13:34:01;6.78;;;4.00;;
6023;SDS011;3040;42.654;23.296;2023-08-21T13:36:28;4.85;;;3.70;;
6023;SDS011;3040;42.654;23.296;2023-08-21T13:38:56;3.67;;;3.47;;
6023;SDS011;3040;42.654;23.296;2023-08-21T13:41:23;7.50;;;3.97;;
6023;SDS011;3040;42.654;23.296;2023-08-21T13:43:50;5.32;;;4.38;;
6023;SDS011;3040;42.654;23.296;2023-08-21T13:46:17;9.00;;;4.18;;
6023;SDS011;3040;42.654;23.296;2023-08-21T13:48:44;4.13;;;3.92;;
6023;SDS011;3040;42.654;23.296;2023-08-21T13:51:10;3.97;;;3.78;;
6023;SDS011;3040;42.654;23.296;2023-08-21T13:53:37;5.47;;;3.70;;
6023;SDS011;3040;42.654;23.296;2023-08-21T13:56:05;4.72;;;4.43;;
6023;SDS011;3040;42.654;23.296;2023-08-21T13:58:32;3.80;;;3.42;;
6023;SDS011;3040;42.654;23.296;2023-08-21T14:00:59;4.20;;;3.90;;
6023;SDS011;3040;42.654;23.296;2023-08-21T14:03:25;4.55;;;4.25;;
6023;SDS011;3040;42.654;23.296;2023-08-21T14:05:52;3.88;;;3.75;;
6023;SDS011;3040;42.654;23.296;2023-08-21T14:08:19;4.00;;;3.58;;
6023;SDS011;3040;42.654;23.296;2023-08-21T14:10:46;4.38;;;3.80;;
6023;SDS011;3040;42.654;23.296;2023-08-21T14:13:14;3.40;;;3.15;;
6023;SDS011;3040;42.654;23.296;2023-08-21T14:15:41;7.35;;;4.20;;
6023;SDS011;3040;42.654;23.296;2023-08-21T14:18:08;4.55;;;3.92;;
6023;SDS011;3040;42.654;23.296;2023-08-21T14:20:35;3.90;;;3.67;;
6023;SDS011;3040;42.654;23.296;2023-08-21T14:23:02;3.90;;;3.63;;
6023;SDS011;3040;42.654;23.296;2023-08-21T14:25:28;3.92;;;3.60;;
6023;SDS011;3040;42.654;23.296;2023-08-21T14:27:55;3.72;;;3.50;;
6023;SDS011;3040;42.654;23.296;2023-08-21T14:30:23;4.97;;;4.47;;
6023;SDS011;3040;42.654;23.296;2023-08-21T14:32:50;9.48;;;4.40;;
6023;SDS011;3040;42.654;23.296;2023-08-21T14:35:17;4.50;;;4.20;;
6023;SDS011;3040;42.654;23.296;2023-08-21T14:37:44;6.00;;;4.15;;
6023;SDS011;3040;42.654;23.296;2023-08-21T14:40:11;4.88;;;4.60;;
6023;SDS011;3040;42.654;23.296;2023-08-21T14:42:38;4.45;;;4.05;;
6023;SDS011;3040;42.654;23.296;2023-08-21T14:45:05;7.25;;;4.18;;
6023;SDS011;3040;42.654;23.296;2023-08-21T14:47:34;4.75;;;4.35;;
6023;SDS011;3040;42.654;23.296;2023-08-21T14:50:02;4.32;;;3.92;;
6023;SDS011;3040;42.654;23.296;2023-08-21T14:52:30;5.15;;;4.03;;
6023;SDS011;3040;42.654;23.296;2023-08-21T14:54:56;4.05;;;3.85;;
6023;SDS011;3040;42.654;23.296;2023-08-21T14:57:23;4.93;;;3.90;;
6023;SDS011;3040;42.654;23.296;2023-08-21T14:59:50;7.07;;;3.90;;
6023;SDS011;3040;42.654;23.296;2023-08-21T15:02:17;4.97;;;4.30;;